createdAt,value
2022-12-31T00:02:26.023Z,16.85
2022-12-31T00:04:54.801Z,16.88
2022-12-31T00:07:21.880Z,16.86
2022-12-31T00:09:50.062Z,16.86
2022-12-31T00:12:16.993Z,16.83
2022-12-31T00:14:44.285Z,16.87
2022-12-31T00:17:11.171Z,16.88
2022-12-31T00:19:38.411Z,16.82
2022-12-31T00:22:05.275Z,16.81
2022-12-31T00:24:33.127Z,16.77
2022-12-31T00:27:01.342Z,16.63
2022-12-31T00:29:28.222Z,16.54
2022-12-31T00:31:55.198Z,16.53
2022-12-31T00:34:22.297Z,16.55
2022-12-31T00:36:49.349Z,16.60
2022-12-31T00:39:16.322Z,16.67
2022-12-31T00:41:44.067Z,16.71
2022-12-31T00:44:13.406Z,16.72
2022-12-31T00:49:06.823Z,16.78
2022-12-31T00:51:33.764Z,16.77
2022-12-31T00:54:00.937Z,16.76
2022-12-31T00:56:30.833Z,16.77
2022-12-31T00:59:00.020Z,16.81
2022-12-31T01:01:31.307Z,16.78
2022-12-31T01:04:03.671Z,16.78
2022-12-31T01:06:31.243Z,16.82
2022-12-31T01:08:58.343Z,16.83
2022-12-31T01:11:29.279Z,16.79
2022-12-31T01:13:59.183Z,16.79
2022-12-31T01:16:32.074Z,16.81
2022-12-31T01:19:00.729Z,16.86
2022-12-31T01:21:28.763Z,16.84
2022-12-31T01:23:55.812Z,16.81
2022-12-31T01:26:22.744Z,16.82
2022-12-31T01:28:49.744Z,16.81
2022-12-31T01:31:20.412Z,16.83
2022-12-31T01:33:49.167Z,16.82
2022-12-31T01:36:23.564Z,16.79
2022-12-31T01:38:54.748Z,16.78
2022-12-31T01:41:24.355Z,16.73
2022-12-31T01:43:55.018Z,16.70
2022-12-31T01:46:34.919Z,16.70
2022-12-31T01:49:11.041Z,16.68
2022-12-31T01:51:42.413Z,16.70
2022-12-31T01:54:14.944Z,16.61
2022-12-31T01:56:45.050Z,16.64
2022-12-31T01:59:16.324Z,16.61
2022-12-31T02:01:43.462Z,16.61
2022-12-31T02:04:14.622Z,16.57
2022-12-31T02:06:47.919Z,16.60
2022-12-31T02:09:15.666Z,16.61
2022-12-31T02:11:42.556Z,16.58
2022-12-31T02:14:15.143Z,16.53
2022-12-31T02:16:54.548Z,16.51
2022-12-31T02:20:10.348Z,16.45
2022-12-31T02:23:06.184Z,16.46
2022-12-31T02:25:55.041Z,16.44
2022-12-31T02:28:49.865Z,16.49
2022-12-31T02:31:30.031Z,16.57
2022-12-31T02:34:03.624Z,16.70
2022-12-31T02:36:37.164Z,16.80
2022-12-31T02:39:07.394Z,16.83
2022-12-31T02:41:52.390Z,16.84
2022-12-31T02:44:25.725Z,16.89
2022-12-31T02:47:17.713Z,16.95
2022-12-31T02:50:05.098Z,16.97
2022-12-31T02:52:48.400Z,16.99
2022-12-31T02:55:25.554Z,16.96
2022-12-31T02:58:02.794Z,16.95
2022-12-31T03:01:14.644Z,16.98
2022-12-31T03:03:43.396Z,16.95
2022-12-31T03:06:13.283Z,17.00
2022-12-31T03:09:01.322Z,17.01
2022-12-31T03:11:54.272Z,16.94
2022-12-31T03:14:21.125Z,16.93
2022-12-31T03:16:49.059Z,16.90
2022-12-31T03:19:35.638Z,16.93
2022-12-31T03:22:21.281Z,16.88
2022-12-31T03:25:06.810Z,16.92
2022-12-31T03:27:33.674Z,16.97
2022-12-31T03:30:00.596Z,17.01
2022-12-31T03:32:27.484Z,17.01
2022-12-31T03:34:55.862Z,17.06
2022-12-31T03:37:22.793Z,17.08
2022-12-31T03:39:49.683Z,17.11
2022-12-31T03:42:16.519Z,17.11
2022-12-31T03:44:43.446Z,17.13
2022-12-31T03:47:10.288Z,17.16
2022-12-31T03:49:37.133Z,17.18
2022-12-31T03:52:06.600Z,17.22
2022-12-31T03:54:33.548Z,17.24
2022-12-31T03:57:00.663Z,17.25
2022-12-31T03:59:27.584Z,17.16
2022-12-31T04:01:54.599Z,17.14
2022-12-31T04:04:21.677Z,17.13
2022-12-31T04:06:48.653Z,17.12
2022-12-31T04:09:16.839Z,17.13
2022-12-31T04:11:43.666Z,17.11
2022-12-31T04:14:11.574Z,17.08
2022-12-31T04:16:38.708Z,17.08
2022-12-31T04:19:05.682Z,17.08
2022-12-31T04:21:35.140Z,17.09
2022-12-31T04:24:03.012Z,16.93
2022-12-31T04:26:31.282Z,16.87
2022-12-31T04:28:58.146Z,16.82
2022-12-31T04:31:25.197Z,16.79
2022-12-31T04:33:52.083Z,16.77
2022-12-31T04:36:18.921Z,16.76
2022-12-31T04:38:45.822Z,16.73
2022-12-31T04:41:19.580Z,16.69
2022-12-31T04:43:51.847Z,16.62
2022-12-31T04:46:22.781Z,16.57
2022-12-31T04:48:49.804Z,16.55
2022-12-31T04:51:16.777Z,16.48
2022-12-31T04:53:43.860Z,16.47
2022-12-31T04:56:11.573Z,16.48
2022-12-31T04:58:39.552Z,16.50
2022-12-31T05:01:08.341Z,16.51
2022-12-31T05:03:36.359Z,16.48
2022-12-31T05:06:07.008Z,16.47
2022-12-31T05:08:34.277Z,16.51
2022-12-31T05:11:01.599Z,16.52
2022-12-31T05:13:33.108Z,16.53
2022-12-31T05:16:01.296Z,16.52
2022-12-31T05:18:32.236Z,16.54
2022-12-31T05:20:59.291Z,16.54
2022-12-31T05:23:26.883Z,16.55
2022-12-31T05:25:53.861Z,16.56
2022-12-31T05:28:21.100Z,16.58
2022-12-31T05:30:50.090Z,16.60
2022-12-31T05:33:17.240Z,16.56
2022-12-31T05:35:46.065Z,16.51
2022-12-31T05:38:12.964Z,16.49
2022-12-31T05:40:39.819Z,16.47
2022-12-31T05:43:06.839Z,16.42
2022-12-31T05:45:34.141Z,16.38
2022-12-31T05:48:01.308Z,16.39
2022-12-31T05:50:28.238Z,16.38
2022-12-31T05:52:56.686Z,16.39
2022-12-31T05:55:24.038Z,16.37
2022-12-31T05:57:50.994Z,16.37
2022-12-31T06:00:18.045Z,16.39
2022-12-31T06:02:45.583Z,16.40
2022-12-31T06:05:12.750Z,16.40
2022-12-31T06:07:39.567Z,16.42
2022-12-31T06:10:08.882Z,16.44
2022-12-31T06:12:35.993Z,16.43
2022-12-31T06:15:03.558Z,16.38
2022-12-31T06:17:32.395Z,16.37
2022-12-31T06:19:59.795Z,16.39
2022-12-31T06:22:26.820Z,16.42
2022-12-31T06:24:53.903Z,16.41
2022-12-31T06:27:22.163Z,16.38
2022-12-31T06:29:49.385Z,16.34
2022-12-31T06:32:16.325Z,16.27
2022-12-31T06:34:43.172Z,16.24
2022-12-31T06:37:09.993Z,16.24
2022-12-31T06:39:36.980Z,16.22
2022-12-31T06:42:04.222Z,16.24
2022-12-31T06:44:32.421Z,16.27
2022-12-31T06:46:59.287Z,16.31
2022-12-31T06:49:26.142Z,16.34
2022-12-31T06:51:52.994Z,16.38
2022-12-31T06:54:20.037Z,16.43
2022-12-31T06:56:47.840Z,16.45
2022-12-31T06:59:25.857Z,16.43
2022-12-31T07:02:16.779Z,16.42
2022-12-31T07:05:06.915Z,16.43
2022-12-31T07:07:43.079Z,16.46
2022-12-31T07:10:29.771Z,16.44
2022-12-31T07:13:36.128Z,16.44
2022-12-31T07:16:25.336Z,16.42
2022-12-31T07:19:07.251Z,16.41
2022-12-31T07:21:38.208Z,16.43
2022-12-31T07:24:07.815Z,16.43
2022-12-31T07:27:03.499Z,16.38
2022-12-31T07:29:51.361Z,16.39
2022-12-31T07:32:33.150Z,16.38
2022-12-31T07:35:14.821Z,16.40
2022-12-31T07:37:51.551Z,16.40
2022-12-31T07:40:29.912Z,16.38
2022-12-31T07:43:12.924Z,16.35
2022-12-31T07:45:49.960Z,16.35
2022-12-31T07:48:24.966Z,16.36
2022-12-31T07:50:56.618Z,16.37
2022-12-31T07:53:25.516Z,16.37
2022-12-31T07:55:57.146Z,16.36
2022-12-31T07:58:40.680Z,16.35
2022-12-31T08:01:13.072Z,16.37
2022-12-31T08:04:00.041Z,16.33
2022-12-31T08:06:41.337Z,16.37
2022-12-31T08:09:26.255Z,16.38
2022-12-31T08:11:57.693Z,16.43
2022-12-31T08:14:26.545Z,16.43
2022-12-31T08:16:54.636Z,16.39
2022-12-31T08:19:26.729Z,16.38
2022-12-31T08:22:22.507Z,16.35
2022-12-31T08:25:06.493Z,16.34
2022-12-31T08:27:45.686Z,16.34
2022-12-31T08:30:16.188Z,16.38
2022-12-31T08:32:52.252Z,16.39
2022-12-31T08:35:35.450Z,16.38
2022-12-31T08:38:17.360Z,16.43
2022-12-31T08:40:59.297Z,16.46
2022-12-31T08:43:48.053Z,16.41
2022-12-31T08:46:25.914Z,16.40
2022-12-31T08:48:53.341Z,16.41
2022-12-31T08:51:23.730Z,16.37
2022-12-31T08:53:53.433Z,16.39
2022-12-31T08:56:29.845Z,16.39
2022-12-31T08:59:24.815Z,16.40
2022-12-31T09:02:27.034Z,16.38
2022-12-31T09:05:09.415Z,16.32
2022-12-31T09:07:40.620Z,16.36
2022-12-31T09:10:20.693Z,16.38
2022-12-31T09:13:04.671Z,16.35
2022-12-31T09:15:41.952Z,16.35
2022-12-31T09:18:11.531Z,16.42
2022-12-31T09:20:44.443Z,16.41
2022-12-31T09:23:13.118Z,16.42
2022-12-31T09:25:53.918Z,16.46
2022-12-31T09:28:39.281Z,16.52
2022-12-31T09:31:15.000Z,16.55
2022-12-31T09:33:52.508Z,16.57
2022-12-31T09:36:30.311Z,16.58
2022-12-31T09:39:10.790Z,16.61
2022-12-31T09:42:17.498Z,16.60
2022-12-31T09:45:28.405Z,16.55
2022-12-31T09:48:48.541Z,16.59
2022-12-31T09:51:32.174Z,16.61
2022-12-31T09:54:45.154Z,16.62
2022-12-31T09:57:36.433Z,16.64
2022-12-31T10:00:12.094Z,16.78
2022-12-31T10:02:59.606Z,16.87
2022-12-31T10:05:56.841Z,16.92
2022-12-31T10:08:48.050Z,16.95
2022-12-31T10:11:26.091Z,17.05
2022-12-31T10:14:18.069Z,17.11
2022-12-31T10:17:18.524Z,17.16
2022-12-31T10:20:25.570Z,17.26
2022-12-31T10:23:20.818Z,17.34
2022-12-31T10:26:23.130Z,17.39
2022-12-31T10:28:58.103Z,17.48
2022-12-31T10:31:40.430Z,17.51
2022-12-31T10:34:16.997Z,17.52
2022-12-31T10:36:57.112Z,17.53
2022-12-31T10:39:58.918Z,17.59
2022-12-31T10:43:18.770Z,17.65
2022-12-31T10:46:32.125Z,17.70
2022-12-31T10:49:39.719Z,17.69
2022-12-31T10:53:05.534Z,17.70
2022-12-31T10:56:05.633Z,17.73
2022-12-31T10:59:39.848Z,17.73
2022-12-31T11:02:55.849Z,17.67
2022-12-31T11:06:03.558Z,17.65
2022-12-31T11:09:08.658Z,17.73
2022-12-31T11:11:47.845Z,17.77
2022-12-31T11:14:47.696Z,17.79
2022-12-31T11:17:40.477Z,17.85
2022-12-31T11:20:28.380Z,17.92
2022-12-31T11:23:17.265Z,18.01
2022-12-31T11:25:57.606Z,18.11
2022-12-31T11:28:59.537Z,18.18
2022-12-31T11:31:57.942Z,18.25
2022-12-31T11:35:02.936Z,18.29
2022-12-31T11:37:41.922Z,18.44
2022-12-31T11:40:36.699Z,18.55
2022-12-31T11:43:21.069Z,18.62
2022-12-31T11:46:08.375Z,18.73
2022-12-31T11:48:44.173Z,18.85
2022-12-31T11:51:46.859Z,18.86
2022-12-31T11:54:50.040Z,18.88
2022-12-31T11:57:27.312Z,18.97
2022-12-31T11:59:59.210Z,18.67
2022-12-31T12:02:32.076Z,18.60
2022-12-31T12:05:10.602Z,18.61
2022-12-31T12:07:38.449Z,18.69
2022-12-31T12:10:23.369Z,18.66
2022-12-31T12:12:53.816Z,18.68
2022-12-31T12:15:27.333Z,18.72
2022-12-31T12:17:58.182Z,18.74
2022-12-31T12:20:31.863Z,18.74
2022-12-31T12:23:01.778Z,18.79
2022-12-31T12:25:39.828Z,18.77
2022-12-31T12:28:24.101Z,18.71
2022-12-31T12:30:59.270Z,18.66
2022-12-31T12:33:29.619Z,18.60
2022-12-31T12:36:08.563Z,18.57
2022-12-31T12:38:36.611Z,18.63
2022-12-31T12:41:07.641Z,18.66
2022-12-31T12:43:37.888Z,18.62
2022-12-31T12:46:17.714Z,18.62
2022-12-31T12:48:49.461Z,18.60
2022-12-31T12:51:38.440Z,18.53
2022-12-31T12:54:25.807Z,18.49
2022-12-31T12:57:04.533Z,18.48
2022-12-31T13:00:09.181Z,18.40
2022-12-31T13:03:21.959Z,18.38
2022-12-31T13:06:09.974Z,18.41
2022-12-31T13:09:01.102Z,18.35
2022-12-31T13:11:43.705Z,18.44
2022-12-31T13:14:27.630Z,18.45
2022-12-31T13:17:05.721Z,18.45
2022-12-31T13:19:44.448Z,18.53
2022-12-31T13:22:22.854Z,18.60
2022-12-31T13:25:00.294Z,18.63
2022-12-31T13:27:34.046Z,18.69
2022-12-31T13:30:07.230Z,18.75
2022-12-31T13:32:40.649Z,18.74
2022-12-31T13:35:24.528Z,18.75
2022-12-31T13:38:04.777Z,18.80
2022-12-31T13:40:45.027Z,18.78
2022-12-31T13:43:22.048Z,18.81
2022-12-31T13:46:03.339Z,18.79
2022-12-31T13:48:39.188Z,18.82
2022-12-31T13:51:14.973Z,18.84
2022-12-31T13:53:52.944Z,18.82
2022-12-31T13:56:26.708Z,18.81
2022-12-31T13:59:04.646Z,18.77
2022-12-31T14:01:38.731Z,18.76
2022-12-31T14:04:15.192Z,18.70
2022-12-31T14:06:50.127Z,18.68
2022-12-31T14:09:23.600Z,18.62
2022-12-31T14:12:18.222Z,18.56
2022-12-31T14:14:58.940Z,18.55
2022-12-31T14:17:36.380Z,18.54
2022-12-31T14:20:18.881Z,18.53
2022-12-31T14:22:57.762Z,18.56
2022-12-31T14:25:33.989Z,18.58
2022-12-31T14:28:05.107Z,18.62
2022-12-31T14:30:40.749Z,18.64
2022-12-31T14:33:45.027Z,18.59
2022-12-31T14:36:32.197Z,18.61
2022-12-31T14:39:34.508Z,18.63
2022-12-31T14:42:18.392Z,18.67
2022-12-31T14:45:04.319Z,18.72
2022-12-31T14:47:48.768Z,18.74
2022-12-31T14:50:22.058Z,18.82
2022-12-31T14:52:53.792Z,18.82
2022-12-31T14:55:28.591Z,18.89
2022-12-31T15:00:54.802Z,18.97
2022-12-31T15:03:36.995Z,18.98
2022-12-31T15:06:36.971Z,18.97
2022-12-31T15:09:23.065Z,19.01
2022-12-31T15:12:18.008Z,19.03
2022-12-31T15:15:06.341Z,19.02
2022-12-31T15:17:51.204Z,18.98
2022-12-31T15:20:44.231Z,19.05
2022-12-31T15:23:22.067Z,19.11
2022-12-31T15:25:58.134Z,19.12
2022-12-31T15:28:34.659Z,19.11
2022-12-31T15:31:11.711Z,19.08
2022-12-31T15:33:55.456Z,18.94
2022-12-31T15:36:26.085Z,19.04
2022-12-31T15:39:07.509Z,19.05
2022-12-31T15:42:10.300Z,19.07
2022-12-31T15:44:45.385Z,19.08
2022-12-31T15:47:22.120Z,19.01
2022-12-31T15:49:50.632Z,19.03
2022-12-31T15:52:25.584Z,18.94
2022-12-31T15:54:57.160Z,18.96
2022-12-31T15:57:33.179Z,19.00
2022-12-31T16:00:04.463Z,19.01
2022-12-31T16:02:31.631Z,18.97
2022-12-31T16:04:58.703Z,18.88
2022-12-31T16:07:28.523Z,18.96
2022-12-31T16:10:00.057Z,19.01
2022-12-31T16:12:39.412Z,19.08
2022-12-31T16:15:22.268Z,19.11
2022-12-31T16:18:03.484Z,19.06
2022-12-31T16:20:34.141Z,19.09
2022-12-31T16:23:03.441Z,19.14
2022-12-31T16:25:33.529Z,19.17
2022-12-31T16:28:03.800Z,19.20
2022-12-31T16:30:35.628Z,19.17
2022-12-31T16:33:07.034Z,19.17
2022-12-31T16:35:36.520Z,19.22
2022-12-31T16:38:13.921Z,19.20
2022-12-31T16:40:43.355Z,19.23
2022-12-31T16:43:26.257Z,19.18
2022-12-31T16:45:57.528Z,19.20
2022-12-31T16:48:26.348Z,19.23
2022-12-31T16:50:56.598Z,19.23
2022-12-31T16:53:27.503Z,19.22
2022-12-31T16:56:00.021Z,19.28
2022-12-31T16:58:32.460Z,19.33
2022-12-31T17:01:13.610Z,19.31
2022-12-31T17:03:45.888Z,19.33
2022-12-31T17:06:16.561Z,19.29
2022-12-31T17:08:47.538Z,19.29
2022-12-31T17:11:28.501Z,19.29
2022-12-31T17:14:07.141Z,19.32
2022-12-31T17:16:36.476Z,19.36
2022-12-31T17:19:04.359Z,19.43
2022-12-31T17:21:32.593Z,19.47
2022-12-31T17:24:04.264Z,19.42
2022-12-31T17:26:34.683Z,19.47
2022-12-31T17:29:05.716Z,19.49
2022-12-31T17:31:36.730Z,19.40
2022-12-31T17:34:29.172Z,19.39
2022-12-31T17:37:14.461Z,19.49
2022-12-31T17:39:50.622Z,19.46
2022-12-31T17:42:30.018Z,19.53
2022-12-31T17:45:02.302Z,19.55
2022-12-31T17:47:36.271Z,19.55
2022-12-31T17:50:18.203Z,19.49
2022-12-31T17:52:45.198Z,19.42
2022-12-31T17:55:12.648Z,19.36
2022-12-31T17:57:50.507Z,19.31
2022-12-31T18:00:22.268Z,19.31
2022-12-31T18:02:49.330Z,19.32
2022-12-31T18:05:19.105Z,19.33
2022-12-31T18:07:46.239Z,19.38
2022-12-31T18:10:15.658Z,19.45
2022-12-31T18:12:44.040Z,19.45
2022-12-31T18:15:16.010Z,19.48
2022-12-31T18:17:45.007Z,19.39
2022-12-31T18:20:12.575Z,19.35
2022-12-31T18:22:42.030Z,19.30
2022-12-31T18:25:12.591Z,19.24
2022-12-31T18:27:41.920Z,19.27
2022-12-31T18:30:10.852Z,19.21
2022-12-31T18:32:40.795Z,19.16
2022-12-31T18:35:33.251Z,19.23
2022-12-31T18:38:03.466Z,19.36
2022-12-31T18:40:30.481Z,19.42
2022-12-31T18:43:02.712Z,19.39
2022-12-31T18:45:31.701Z,19.27
2022-12-31T18:47:58.574Z,19.30
2022-12-31T18:50:26.781Z,19.33
2022-12-31T18:52:53.626Z,19.22
2022-12-31T18:55:33.473Z,19.20
2022-12-31T18:58:00.345Z,19.28
2022-12-31T19:00:27.240Z,19.25
2022-12-31T19:02:54.110Z,19.36
2022-12-31T19:05:24.237Z,19.45
2022-12-31T19:07:52.464Z,19.51
2022-12-31T19:10:20.216Z,19.53
2022-12-31T19:12:48.171Z,19.56
2022-12-31T19:15:25.003Z,19.50
2022-12-31T19:17:52.030Z,19.56
2022-12-31T19:20:19.111Z,19.55
2022-12-31T19:22:46.004Z,19.59
2022-12-31T19:25:23.817Z,19.47
2022-12-31T19:27:51.564Z,19.44
2022-12-31T19:30:23.253Z,19.53
2022-12-31T19:32:51.157Z,19.54
2022-12-31T19:35:19.894Z,19.55
2022-12-31T19:37:49.800Z,19.47
2022-12-31T19:40:22.042Z,19.40
2022-12-31T19:42:50.699Z,19.46
2022-12-31T19:45:22.571Z,19.54
2022-12-31T19:47:50.712Z,19.61
2022-12-31T19:50:20.915Z,19.59
2022-12-31T19:52:51.128Z,19.57
2022-12-31T19:55:22.782Z,19.63
2022-12-31T19:57:49.798Z,19.65
2022-12-31T20:00:19.639Z,19.69
2022-12-31T20:02:48.897Z,19.74
2022-12-31T20:05:19.234Z,19.75
2022-12-31T20:07:46.539Z,19.67
2022-12-31T20:10:13.867Z,19.75
2022-12-31T20:12:44.537Z,19.79
2022-12-31T20:15:11.914Z,19.87
2022-12-31T20:17:38.993Z,19.94
2022-12-31T20:20:07.597Z,19.96
2022-12-31T20:22:34.577Z,19.94
2022-12-31T20:25:01.640Z,20.02
2022-12-31T20:27:28.681Z,20.04
2022-12-31T20:29:57.023Z,20.07
2022-12-31T20:32:23.843Z,20.14
2022-12-31T20:34:50.754Z,20.16
2022-12-31T20:37:17.628Z,20.14
2022-12-31T20:39:44.469Z,20.15
2022-12-31T20:42:11.374Z,20.18
2022-12-31T20:44:38.287Z,20.21
2022-12-31T20:47:06.502Z,20.04
2022-12-31T20:50:08.977Z,20.06
2022-12-31T20:52:20.182Z,20.15
2022-12-31T20:54:47.040Z,20.24
2022-12-31T20:57:13.973Z,20.29
2022-12-31T20:59:40.981Z,20.19
2022-12-31T21:02:21.737Z,20.19
2022-12-31T21:04:50.799Z,20.24
2022-12-31T21:07:18.002Z,20.25
2022-12-31T21:09:44.890Z,20.05
2022-12-31T21:12:30.932Z,20.12
2022-12-31T21:14:58.203Z,20.21
2022-12-31T21:17:26.351Z,20.22
2022-12-31T21:19:53.221Z,20.25
2022-12-31T21:22:20.414Z,20.21
2022-12-31T21:24:47.233Z,20.32
2022-12-31T21:27:14.354Z,20.35
2022-12-31T21:30:01.873Z,20.37
2022-12-31T21:32:29.481Z,20.35
2022-12-31T21:35:39.567Z,20.36
2022-12-31T21:37:59.198Z,20.38
2022-12-31T21:40:27.897Z,20.36
2022-12-31T21:42:54.804Z,20.34
2022-12-31T21:45:21.799Z,20.30
2022-12-31T21:48:08.579Z,20.32
2022-12-31T21:50:35.575Z,20.33
2022-12-31T21:53:02.477Z,20.36
2022-12-31T21:55:47.888Z,20.37
2022-12-31T21:58:31.763Z,20.33
2022-12-31T22:01:18.716Z,20.28
2022-12-31T22:03:47.022Z,20.34
2022-12-31T22:06:20.469Z,20.41
2022-12-31T22:08:51.469Z,20.45
2022-12-31T22:11:21.226Z,20.48
2022-12-31T22:13:49.001Z,20.53
2022-12-31T22:16:17.050Z,20.50
2022-12-31T22:18:46.158Z,20.48
2022-12-31T22:21:19.224Z,20.53
2022-12-31T22:23:49.007Z,20.47
2022-12-31T22:26:18.129Z,20.45
2022-12-31T22:28:46.310Z,20.49
2022-12-31T22:31:16.126Z,20.52
2022-12-31T22:33:43.664Z,20.42
2022-12-31T22:36:15.306Z,20.44
2022-12-31T22:38:43.104Z,20.49
2022-12-31T22:41:12.905Z,20.53
2022-12-31T22:43:44.151Z,20.52
2022-12-31T22:46:14.791Z,20.41
2022-12-31T22:48:42.577Z,20.37
2022-12-31T22:51:12.989Z,20.37
2022-12-31T22:53:41.231Z,20.41
2022-12-31T22:56:10.118Z,20.45
2022-12-31T22:58:37.842Z,20.47
2022-12-31T23:01:06.185Z,20.47
2022-12-31T23:03:33.842Z,20.44
2022-12-31T23:06:01.009Z,20.45
2022-12-31T23:08:29.258Z,20.36
2022-12-31T23:11:03.608Z,20.38
2022-12-31T23:13:55.503Z,20.36
2022-12-31T23:16:42.515Z,20.37
2022-12-31T23:19:28.671Z,20.38
2022-12-31T23:22:14.260Z,20.32
2022-12-31T23:24:42.779Z,20.30
2022-12-31T23:27:11.212Z,20.35
2022-12-31T23:29:46.145Z,20.38
2022-12-31T23:32:15.135Z,20.42
2022-12-31T23:34:44.251Z,20.46
2022-12-31T23:37:11.356Z,20.44
2022-12-31T23:39:39.925Z,20.40
2022-12-31T23:42:08.361Z,20.42
2022-12-31T23:44:35.312Z,20.43
2022-12-31T23:47:02.236Z,20.39
2022-12-31T23:49:29.229Z,20.37
2022-12-31T23:51:56.211Z,20.42
2022-12-31T23:54:23.107Z,20.47
2022-12-31T23:56:49.994Z,20.42
2022-12-31T23:59:18.411Z,20.35
